Mon Louis, Alabama
Current Conditions -  °F | °C
As of 9:53 PM on Tuesday 27 Jan 2015 (Local Time) from KBFM Reporting Station
Clear Clear  
Wind Chill: 51°   Ceiling: Unl
Heat Index: 51°   Visibility: 10mi
Dew Point: 38°   Wind: 7mph
Humidity: 61%   Direction: 330°NNW
Pressure: 30.16"   Gusts: NA
Location:  30.4032°N, 88.1801°W
Report Text: KBFM 280353Z AUTO 33006KT 10SM CLR 11/03 A3016 RMK AO2 SLP211 T01060033
Loading
Personal Weather Stations






























Interactive Weather Map New forecast layout! Learn more

10-Day Weather Forecast

Advertisements
Track Severe Weather on mobile